Cedar Falls, IA

12:33 AM CDT on July 26, 2016 (GMT -0500)
| | Change Station

Elev -9999 ft 0.00 °N, 0.00 °E | Updated

Clear
Clear
64 °F
Feels Like 64 °F
N
2
Wind Variable Wind from NW
Gusts mph

Today
High -- | Low -- °F
--% Chance of Precip.
Yesterday
High -- | Low -- °F
Precip. -- in
Pressure 30.05 in
Visibility 10.0 miles
Clouds Clear
Dew Point 62 °F
Humidity 93%
Rainfall --
Snow Depth Not available.
5:56 AM 8:35 PM
Waning Gibbous, 58% visible
METAR KALO 260454Z AUTO 31004KT 10SM CLR 19/18 A3006 RMK AO2 SLP175 T01940178
Pressure 30.05 in
Visibility 10.0 miles
Clouds Clear
Dew Point 62 °F
Humidity 93%
Rainfall --
Snow Depth Not available.
5:56 AM 8:35 PM
Waning Gibbous, 58% visible
METAR KALO 260454Z AUTO 31004KT 10SM CLR 19/18 A3006 RMK AO2 SLP175 T01940178

10-Day Weather Forecast

Almanac

Astronomy

Jul. 26, 2016 Rise Set
Actual Time
Civil Twilight
Nautical Twilight
Astronomical Twilight
Moon
Length of Visible Light
Length of Day
Tomorrow will be .
, % of the Moon is Illuminated

Today's Extremes

State Highs State Lows

Community

WunderPhotos

Upload Photos

1,927,538 photos uploaded!

WunderBlog® & News

Nearby

Air Quality

  Air Quality AQ Index Pollutant
Not available.

Snow Depth

Station Depth Elevation

Earthquake Activity

City Distance Mag. Time & Date
Minimum magnitude displayed is 2.5.

Coastal Water Temperatures

Place Temperature

Stations

Nearby Weather Stations

Station Location Temp. Windchill Dew Point Humidity Wind Precip. Elev Updated Type
                   

Watches & Warnings

There are currently no watches in effect.